createdAt,value
2018-01-17T00:00:42.629Z,78.74
2018-01-17T00:03:10.953Z,79.27
2018-01-17T00:05:39.377Z,79.41
2018-01-17T00:08:07.769Z,79.26
2018-01-17T00:10:36.085Z,79.29
2018-01-17T00:13:04.452Z,79.12
2018-01-17T00:15:34.666Z,79.20
2018-01-17T00:18:03.819Z,79.12
2018-01-17T00:20:32.145Z,79.20
2018-01-17T00:23:01.257Z,79.49
2018-01-17T00:25:29.613Z,79.29
2018-01-17T00:27:58.717Z,79.28
2018-01-17T00:30:27.842Z,79.36
2018-01-17T00:32:56.201Z,79.21
2018-01-17T00:35:25.314Z,78.94
2018-01-17T00:37:53.664Z,79.00
2018-01-17T00:40:22.760Z,78.98
2018-01-17T00:42:51.145Z,79.25
2018-01-17T00:45:19.493Z,79.58
2018-01-17T00:47:47.864Z,80.09
2018-01-17T00:50:16.176Z,80.36
2018-01-17T00:52:44.612Z,80.44
2018-01-17T00:55:12.957Z,80.37
2018-01-17T00:57:41.324Z,80.30
2018-01-17T01:00:09.676Z,80.08
2018-01-17T01:02:38.848Z,80.05
2018-01-17T01:05:07.192Z,80.30
2018-01-17T01:07:35.552Z,80.61
2018-01-17T01:10:03.944Z,80.81
2018-01-17T01:12:32.268Z,80.65
2018-01-17T01:15:01.460Z,80.68
2018-01-17T01:17:29.784Z,80.65
2018-01-17T01:19:58.112Z,80.74
2018-01-17T01:22:26.480Z,81.10
2018-01-17T01:24:55.012Z,81.59
2018-01-17T01:27:23.480Z,81.75
2018-01-17T01:29:52.669Z,81.81
2018-01-17T01:32:21.421Z,81.84
2018-01-17T01:34:49.793Z,81.76
2018-01-17T01:37:18.185Z,81.68
2018-01-17T01:39:46.557Z,81.49
2018-01-17T01:42:15.145Z,81.20
2018-01-17T01:44:43.545Z,81.19
2018-01-17T01:47:11.977Z,80.76
2018-01-17T01:49:40.553Z,80.51
2018-01-17T01:52:08.917Z,80.48
2018-01-17T01:54:37.308Z,80.20
2018-01-17T01:57:05.665Z,80.12
2018-01-17T01:59:34.825Z,79.89
2018-01-17T02:02:03.185Z,79.77
2018-01-17T02:04:31.564Z,79.75
2018-01-17T02:06:59.896Z,79.75
2018-01-17T02:09:28.995Z,79.50
2018-01-17T02:11:57.368Z,79.30
2018-01-17T02:14:26.512Z,79.11
2018-01-17T02:16:54.911Z,79.11
2018-01-17T02:19:23.277Z,79.04
2018-01-17T02:21:51.640Z,78.96
2018-01-17T02:24:20.011Z,78.73
2018-01-17T02:26:48.324Z,78.73
2018-01-17T02:29:17.431Z,78.57
2018-01-17T02:31:45.787Z,78.27
2018-01-17T02:34:14.107Z,78.20
2018-01-17T02:36:42.472Z,78.04
2018-01-17T02:39:13.482Z,77.96
2018-01-17T02:41:41.856Z,77.88
2018-01-17T02:44:10.202Z,77.92
2018-01-17T02:46:39.692Z,78.04
2018-01-17T02:49:08.812Z,78.27
2018-01-17T02:51:37.160Z,78.53
2018-01-17T02:54:05.535Z,78.73
2018-01-17T02:56:34.609Z,79.10
2018-01-17T02:59:03.723Z,79.51
2018-01-17T03:01:32.839Z,80.15
2018-01-17T03:04:01.199Z,80.45
2018-01-17T03:06:29.600Z,80.87
2018-01-17T03:08:58.172Z,81.44
2018-01-17T03:11:26.487Z,82.07
2018-01-17T03:13:54.859Z,82.27
2018-01-17T03:16:23.599Z,82.65
2018-01-17T03:18:51.963Z,82.71
2018-01-17T03:21:21.115Z,83.13
2018-01-17T03:23:49.615Z,83.33
2018-01-17T03:26:18.020Z,83.62
2018-01-17T03:28:47.162Z,83.81
2018-01-17T03:31:15.532Z,84.13
2018-01-17T03:33:43.854Z,84.08
2018-01-17T03:36:12.219Z,84.17
2018-01-17T03:38:40.567Z,84.20
2018-01-17T03:41:08.996Z,84.47
2018-01-17T03:43:37.388Z,84.85
2018-01-17T03:46:06.576Z,85.41
2018-01-17T03:48:35.744Z,85.36
2018-01-17T03:51:04.148Z,85.41
2018-01-17T03:53:32.537Z,85.61
2018-01-17T03:56:01.713Z,85.45
2018-01-17T03:58:30.084Z,85.54
2018-01-17T04:00:58.507Z,85.54
2018-01-17T04:03:26.928Z,85.34
2018-01-17T04:05:55.332Z,85.60
2018-01-17T04:08:23.752Z,85.60
2018-01-17T04:10:52.879Z,85.58
2018-01-17T04:13:22.031Z,86.00
2018-01-17T04:15:50.366Z,86.20
2018-01-17T04:18:18.734Z,86.19
2018-01-17T04:20:47.051Z,86.29
2018-01-17T04:23:15.786Z,86.44
2018-01-17T04:25:44.151Z,86.43
2018-01-17T04:28:12.510Z,86.53
2018-01-17T04:30:40.874Z,86.75
2018-01-17T04:33:10.638Z,86.86
2018-01-17T04:35:39.734Z,86.96
2018-01-17T04:38:08.062Z,86.99
2018-01-17T04:40:36.451Z,87.21
2018-01-17T04:43:05.227Z,87.24
2018-01-17T04:45:34.370Z,87.19
2018-01-17T04:48:02.738Z,87.20
2018-01-17T04:50:31.198Z,87.25
2018-01-17T04:52:59.522Z,87.25
2018-01-17T04:55:27.846Z,87.23
2018-01-17T04:57:56.606Z,87.12
2018-01-17T05:00:24.962Z,87.09
2018-01-17T05:02:53.507Z,87.08
2018-01-17T05:05:22.246Z,86.90
2018-01-17T05:07:50.610Z,86.74
2018-01-17T05:10:19.719Z,86.69
2018-01-17T05:12:48.086Z,86.59
2018-01-17T05:15:16.455Z,86.24
2018-01-17T05:17:44.989Z,85.82
2018-01-17T05:20:13.302Z,85.31
2018-01-17T05:22:41.640Z,85.14
2018-01-17T05:25:10.082Z,85.04
2018-01-17T05:27:38.406Z,84.86
2018-01-17T05:30:06.770Z,84.67
2018-01-17T05:32:35.866Z,84.72
2018-01-17T05:35:04.966Z,84.65
2018-01-17T05:37:33.330Z,84.69
2018-01-17T05:40:02.066Z,84.54
2018-01-17T05:42:30.389Z,84.63
2018-01-17T05:44:59.526Z,84.77
2018-01-17T05:47:27.849Z,84.84
2018-01-17T05:49:57.829Z,85.34
2018-01-17T05:52:26.238Z,85.44
2018-01-17T05:54:55.386Z,85.61
2018-01-17T05:57:23.746Z,85.90
2018-01-17T05:59:52.470Z,85.86
2018-01-17T06:02:20.842Z,85.51
2018-01-17T06:04:49.556Z,85.41
2018-01-17T06:07:17.920Z,85.46
2018-01-17T06:09:46.237Z,85.34
2018-01-17T06:12:15.742Z,84.98
2018-01-17T06:14:44.513Z,84.81
2018-01-17T06:17:12.833Z,84.80
2018-01-17T06:19:41.189Z,84.65
2018-01-17T06:22:09.898Z,84.77
2018-01-17T06:24:38.650Z,84.15
2018-01-17T06:27:07.366Z,84.02
2018-01-17T06:29:36.334Z,83.74
2018-01-17T06:32:05.099Z,83.88
2018-01-17T06:34:33.425Z,84.08
2018-01-17T06:37:01.758Z,84.09
2018-01-17T06:39:30.122Z,84.22
2018-01-17T06:41:58.453Z,84.22
2018-01-17T06:44:27.584Z,84.21
2018-01-17T06:46:55.926Z,83.77
2018-01-17T06:49:25.226Z,83.29
2018-01-17T06:51:53.977Z,82.90
2018-01-17T06:54:22.353Z,82.80
2018-01-17T06:56:50.765Z,83.25
2018-01-17T06:59:19.189Z,83.45
2018-01-17T07:01:47.526Z,83.65
2018-01-17T07:04:15.873Z,84.09
2018-01-17T07:06:45.105Z,84.11
2018-01-17T07:09:14.245Z,83.55
2018-01-17T07:11:43.349Z,83.39
2018-01-17T07:14:13.229Z,83.38
2018-01-17T07:16:42.402Z,83.47
2018-01-17T07:19:11.122Z,83.53
2018-01-17T07:21:39.477Z,83.91
2018-01-17T07:24:07.793Z,84.42
2018-01-17T07:26:36.533Z,84.61
2018-01-17T07:29:05.341Z,84.79
2018-01-17T07:31:34.459Z,84.85
2018-01-17T07:34:02.841Z,84.90
2018-01-17T07:36:31.193Z,84.95
2018-01-17T07:39:00.333Z,84.61
2018-01-17T07:41:28.685Z,84.07
2018-01-17T07:43:57.969Z,83.73
2018-01-17T07:46:26.341Z,83.48
2018-01-17T07:48:55.429Z,83.05
2018-01-17T07:51:23.793Z,82.73
2018-01-17T07:53:52.125Z,82.58
2018-01-17T07:56:20.504Z,82.18
2018-01-17T07:58:48.848Z,81.87
2018-01-17T08:01:17.201Z,81.20
2018-01-17T08:03:45.562Z,80.48
2018-01-17T08:06:14.665Z,80.09
2018-01-17T08:08:43.793Z,79.38
2018-01-17T08:11:12.921Z,79.10
2018-01-17T08:13:41.251Z,78.39
2018-01-17T08:16:09.621Z,77.91
2018-01-17T08:18:38.365Z,77.82
2018-01-17T08:21:06.749Z,77.72
2018-01-17T08:23:35.143Z,77.49
2018-01-17T08:26:04.281Z,77.17
2018-01-17T08:28:32.640Z,76.98
2018-01-17T08:31:01.373Z,76.63
2018-01-17T08:33:29.695Z,76.72
2018-01-17T08:35:58.453Z,77.01
2018-01-17T08:38:26.795Z,76.71
2018-01-17T08:40:55.150Z,76.79
2018-01-17T08:43:23.474Z,76.65
2018-01-17T08:45:51.830Z,76.36
2018-01-17T08:48:20.195Z,76.24
2018-01-17T08:50:48.555Z,76.35
2018-01-17T08:53:16.882Z,76.02
2018-01-17T08:55:45.201Z,75.79
2018-01-17T08:58:14.321Z,75.68
2018-01-17T09:00:42.661Z,75.68
2018-01-17T09:03:11.821Z,75.88
2018-01-17T09:05:40.129Z,76.26
2018-01-17T09:08:09.255Z,78.28
2018-01-17T09:10:37.581Z,76.45
2018-01-17T09:13:06.362Z,78.17
2018-01-17T09:15:34.710Z,76.49
2018-01-17T09:18:03.029Z,77.18
2018-01-17T09:20:31.416Z,76.76
2018-01-17T09:22:59.769Z,79.15
2018-01-17T09:25:28.102Z,77.58
2018-01-17T09:27:56.849Z,78.56
2018-01-17T09:30:25.582Z,79.82
2018-01-17T09:32:54.712Z,79.63
2018-01-17T09:35:23.036Z,78.92
2018-01-17T09:37:52.137Z,78.71
2018-01-17T09:40:21.245Z,78.44
2018-01-17T09:42:49.602Z,79.00
2018-01-17T09:45:18.759Z,79.16
2018-01-17T09:47:47.080Z,79.71
2018-01-17T09:50:16.154Z,80.26
2018-01-17T09:52:44.504Z,80.31
2018-01-17T09:55:12.822Z,80.64
2018-01-17T09:57:41.961Z,81.50
2018-01-17T10:00:10.337Z,81.82
2018-01-17T10:02:38.654Z,82.55
2018-01-17T10:05:06.977Z,83.19
2018-01-17T10:07:35.325Z,83.27
2018-01-17T10:10:04.436Z,83.20
2018-01-17T10:12:33.565Z,83.02
2018-01-17T10:15:01.900Z,83.28
2018-01-17T10:17:31.021Z,83.66
2018-01-17T10:19:59.368Z,83.11
2018-01-17T10:22:28.488Z,82.94
2018-01-17T10:24:56.848Z,83.44
2018-01-17T10:27:25.940Z,83.13
2018-01-17T10:29:55.072Z,82.85
2018-01-17T10:32:23.396Z,82.20
2018-01-17T10:34:51.736Z,81.92
2018-01-17T10:37:20.117Z,81.60
2018-01-17T10:39:48.454Z,81.86
2018-01-17T10:42:17.572Z,81.67
2018-01-17T10:44:45.962Z,82.61
2018-01-17T10:47:14.281Z,83.20
2018-01-17T10:49:42.600Z,82.53
2018-01-17T10:52:10.964Z,82.09
2018-01-17T10:54:39.284Z,81.75
2018-01-17T10:57:07.600Z,82.08
2018-01-17T10:59:36.776Z,82.35
2018-01-17T11:02:05.088Z,81.92
2018-01-17T11:04:33.456Z,82.41
2018-01-17T11:07:02.583Z,82.86
2018-01-17T11:09:30.913Z,82.84
2018-01-17T11:11:59.236Z,82.50
2018-01-17T11:14:27.604Z,82.32
2018-01-17T11:16:55.925Z,82.06
2018-01-17T11:19:24.300Z,82.04
2018-01-17T11:21:52.626Z,81.61
2018-01-17T11:24:20.964Z,81.65
2018-01-17T11:26:49.324Z,82.00
2018-01-17T11:29:17.720Z,82.19
2018-01-17T11:31:46.084Z,82.15
2018-01-17T11:34:14.407Z,81.70
2018-01-17T11:36:43.531Z,81.13
2018-01-17T11:39:11.868Z,80.44
2018-01-17T11:41:40.229Z,79.97
2018-01-17T11:44:08.548Z,79.82
2018-01-17T11:46:36.916Z,79.81
2018-01-17T11:49:05.297Z,79.91
2018-01-17T11:51:33.643Z,79.81
2018-01-17T11:54:01.956Z,79.63
2018-01-17T11:56:31.072Z,79.56
2018-01-17T11:58:59.391Z,79.26
2018-01-17T12:01:27.739Z,79.68
2018-01-17T12:03:56.415Z,79.49
2018-01-17T12:06:24.809Z,79.94
2018-01-17T12:08:53.101Z,79.92
2018-01-17T12:11:21.467Z,80.09
2018-01-17T12:13:49.787Z,80.60
2018-01-17T12:16:18.916Z,80.75
2018-01-17T12:18:47.280Z,80.78
2018-01-17T12:21:15.641Z,80.79
2018-01-17T12:23:44.723Z,80.81
2018-01-17T12:26:13.879Z,80.41
2018-01-17T12:28:42.246Z,80.49
2018-01-17T12:31:10.599Z,79.92
2018-01-17T12:33:38.920Z,79.64
2018-01-17T12:36:07.313Z,79.65
2018-01-17T12:38:35.644Z,79.50
2018-01-17T12:41:03.998Z,78.99
2018-01-17T12:43:33.160Z,79.04
2018-01-17T12:46:01.535Z,78.71
2018-01-17T12:48:29.859Z,78.78
2018-01-17T12:50:58.226Z,78.59
2018-01-17T12:53:27.319Z,78.71
2018-01-17T12:55:55.639Z,78.56
2018-01-17T12:58:23.995Z,78.79
2018-01-17T13:00:52.351Z,78.05
2018-01-17T13:03:21.475Z,78.37
2018-01-17T13:05:49.843Z,78.55
2018-01-17T13:08:18.199Z,78.17
2018-01-17T13:10:46.559Z,77.83
2018-01-17T13:13:14.867Z,78.14
2018-01-17T13:15:43.959Z,77.90
2018-01-17T13:18:13.058Z,77.82
2018-01-17T13:20:41.368Z,77.20
2018-01-17T13:23:09.731Z,76.74
2018-01-17T13:25:38.062Z,76.67
2018-01-17T13:28:07.147Z,76.97
2018-01-17T13:30:35.514Z,76.49
2018-01-17T13:33:03.839Z,76.08
2018-01-17T13:35:32.150Z,75.15
2018-01-17T13:38:00.524Z,75.00
2018-01-17T13:40:28.846Z,74.81
2018-01-17T13:42:57.166Z,74.42
2018-01-17T13:45:25.530Z,73.18
2018-01-17T13:47:53.890Z,73.55
2018-01-17T13:50:23.003Z,73.18
2018-01-17T13:52:51.322Z,72.77
2018-01-17T13:55:19.683Z,73.20
2018-01-17T13:57:48.031Z,73.46
2018-01-17T14:00:17.138Z,73.28
2018-01-17T14:02:45.498Z,73.64
2018-01-17T14:05:14.583Z,73.96
2018-01-17T14:07:43.715Z,73.82
2018-01-17T14:10:12.063Z,74.25
2018-01-17T14:12:41.186Z,74.74
2018-01-17T14:15:09.554Z,74.53
2018-01-17T14:17:37.874Z,73.95
2018-01-17T14:20:06.262Z,73.93
2018-01-17T14:22:34.639Z,74.05
2018-01-17T14:25:02.966Z,74.50
2018-01-17T14:27:31.330Z,74.34
2018-01-17T14:30:01.290Z,74.53
2018-01-17T14:32:29.658Z,74.41
2018-01-17T14:34:58.026Z,74.62
2018-01-17T14:37:26.359Z,74.25
2018-01-17T14:39:54.766Z,74.76
2018-01-17T14:42:23.090Z,75.11
2018-01-17T14:44:52.370Z,75.75
2018-01-17T14:47:20.714Z,75.33
2018-01-17T14:49:49.894Z,74.45
2018-01-17T14:52:19.026Z,74.34
2018-01-17T14:54:47.403Z,73.83
2018-01-17T14:57:15.767Z,73.63
2018-01-17T14:59:44.078Z,73.41
2018-01-17T15:02:12.427Z,73.12
2018-01-17T15:04:40.774Z,72.88
2018-01-17T15:07:09.908Z,72.40
2018-01-17T15:09:38.286Z,71.09
2018-01-17T15:12:06.601Z,70.67
2018-01-17T15:14:34.933Z,70.59
2018-01-17T15:17:03.290Z,70.67
2018-01-17T15:19:32.399Z,70.87
2018-01-17T15:22:00.787Z,71.37
2018-01-17T15:24:29.998Z,71.58
2018-01-17T15:26:59.334Z,72.04
2018-01-17T15:29:27.684Z,72.35
2018-01-17T15:31:56.009Z,72.45
2018-01-17T15:34:25.169Z,72.47
2018-01-17T15:36:53.489Z,72.49
2018-01-17T15:39:22.573Z,73.08
2018-01-17T15:41:50.942Z,73.28
2018-01-17T15:44:19.310Z,73.23
2018-01-17T15:46:47.841Z,73.08
2018-01-17T15:49:16.202Z,73.37
2018-01-17T15:51:45.319Z,72.99
2018-01-17T15:54:14.349Z,73.24
2018-01-17T15:56:42.683Z,72.56
2018-01-17T15:59:11.085Z,72.38
2018-01-17T16:01:39.438Z,72.34
2018-01-17T16:04:07.825Z,71.91
2018-01-17T16:06:36.137Z,72.19
2018-01-17T16:09:04.496Z,71.90
2018-01-17T16:11:32.857Z,72.16
2018-01-17T16:14:01.181Z,71.86
2018-01-17T16:16:29.546Z,72.35
2018-01-17T16:18:57.879Z,72.67
2018-01-17T16:21:26.265Z,72.94
2018-01-17T16:23:55.401Z,73.05
2018-01-17T16:26:23.722Z,73.59
2018-01-17T16:28:52.082Z,74.10
2018-01-17T16:31:20.443Z,74.77
2018-01-17T16:33:49.141Z,74.64
2018-01-17T16:36:18.300Z,74.46
2018-01-17T16:38:47.518Z,74.07
2018-01-17T16:41:15.834Z,74.25
2018-01-17T16:43:44.201Z,73.98
2018-01-17T16:46:13.313Z,73.61
2018-01-17T16:48:41.813Z,73.22
2018-01-17T16:51:10.226Z,72.81
2018-01-17T16:53:38.568Z,72.97
2018-01-17T16:56:06.996Z,73.00
2018-01-17T16:58:35.972Z,73.37
2018-01-17T17:01:04.361Z,73.48
2018-01-17T17:03:33.789Z,73.29
2018-01-17T17:06:02.966Z,73.52
2018-01-17T17:08:31.435Z,73.41
2018-01-17T17:10:59.761Z,73.59
2018-01-17T17:13:28.093Z,73.87
2018-01-17T17:15:56.487Z,73.82
2018-01-17T17:18:24.897Z,73.37
2018-01-17T17:20:53.234Z,73.49
2018-01-17T17:23:21.661Z,73.53
2018-01-17T17:25:50.457Z,72.68
2018-01-17T17:28:20.347Z,72.20
2018-01-17T17:30:49.481Z,72.32
2018-01-17T17:33:19.182Z,72.33
2018-01-17T17:35:47.573Z,72.57
2018-01-17T17:38:15.916Z,72.56
2018-01-17T17:40:44.310Z,73.06
2018-01-17T17:43:13.105Z,72.91
2018-01-17T17:45:41.563Z,73.30
2018-01-17T17:48:09.905Z,73.47
2018-01-17T17:50:38.234Z,73.77
2018-01-17T17:53:07.365Z,73.87
2018-01-17T17:55:35.745Z,73.83
2018-01-17T17:58:04.641Z,74.00
2018-01-17T18:00:33.072Z,74.49
2018-01-17T18:03:01.431Z,74.65
2018-01-17T18:05:30.537Z,74.56
2018-01-17T18:07:58.949Z,74.62
2018-01-17T18:10:27.317Z,74.86
2018-01-17T18:12:55.719Z,74.87
2018-01-17T18:15:25.376Z,74.73
2018-01-17T18:17:53.746Z,74.73
2018-01-17T18:20:22.877Z,74.37
2018-01-17T18:22:51.244Z,74.38
2018-01-17T18:25:19.914Z,73.84
2018-01-17T18:27:48.289Z,73.61
2018-01-17T18:30:16.616Z,73.67
2018-01-17T18:32:44.940Z,73.57
2018-01-17T18:35:13.337Z,73.09
2018-01-17T18:37:42.612Z,73.09
2018-01-17T18:40:11.773Z,72.52
2018-01-17T18:42:40.134Z,72.55
2018-01-17T18:45:08.608Z,72.39
2018-01-17T18:47:38.088Z,72.23
2018-01-17T18:50:06.854Z,71.92
2018-01-17T18:52:36.427Z,71.76
2018-01-17T18:55:05.299Z,72.06
2018-01-17T18:57:33.648Z,71.89
2018-01-17T19:00:02.016Z,71.29
2018-01-17T19:02:30.520Z,71.22
2018-01-17T19:05:01.008Z,71.11
2018-01-17T19:07:30.172Z,71.11
2018-01-17T19:09:58.553Z,71.26
2018-01-17T19:12:26.876Z,71.39
2018-01-17T19:14:55.585Z,71.01
2018-01-17T19:17:23.981Z,71.13
2018-01-17T19:19:52.400Z,71.07
2018-01-17T19:22:21.663Z,71.47
2018-01-17T19:24:51.372Z,72.14
2018-01-17T19:27:19.740Z,73.77
2018-01-17T19:29:48.927Z,77.59
2018-01-17T19:32:18.404Z,79.80
2018-01-17T19:34:48.061Z,80.42
2018-01-17T19:37:16.449Z,82.27
2018-01-17T19:39:45.295Z,82.44
2018-01-17T19:42:14.133Z,83.60
2018-01-17T19:44:42.605Z,84.26
2018-01-17T19:47:10.964Z,84.75
2018-01-17T19:49:39.492Z,85.29
2018-01-17T19:52:09.227Z,85.86
2018-01-17T19:54:37.771Z,86.47
2018-01-17T19:57:07.183Z,86.78
2018-01-17T19:59:36.523Z,86.76
2018-01-17T20:02:05.024Z,86.80
2018-01-17T20:04:35.021Z,87.06
2018-01-17T20:07:03.631Z,87.35
2018-01-17T20:09:32.833Z,87.23
2018-01-17T20:12:01.391Z,87.43
2018-01-17T20:14:29.816Z,87.28
2018-01-17T20:16:58.289Z,87.26
2018-01-17T20:19:27.477Z,87.33
2018-01-17T20:21:58.876Z,87.18
2018-01-17T20:24:31.755Z,87.09
2018-01-17T20:27:00.403Z,87.05
2018-01-17T20:29:28.831Z,86.96
2018-01-17T20:31:57.256Z,86.83
2018-01-17T20:34:27.515Z,86.86
2018-01-17T20:36:56.123Z,86.67
2018-01-17T20:39:30.676Z,86.54
2018-01-17T20:41:59.031Z,86.58
2018-01-17T20:44:28.333Z,86.55
2018-01-17T20:46:58.641Z,86.51
2018-01-17T20:49:27.071Z,86.47
2018-01-17T20:51:55.472Z,86.38
2018-01-17T20:54:23.955Z,86.36
2018-01-17T20:56:53.111Z,86.29
2018-01-17T20:59:21.637Z,86.14
2018-01-17T21:01:50.804Z,86.01
2018-01-17T21:04:19.867Z,85.73
2018-01-17T21:06:49.092Z,85.37
2018-01-17T21:09:17.479Z,84.99
2018-01-17T21:11:45.824Z,84.48
2018-01-17T21:14:14.784Z,84.48
2018-01-17T21:16:43.211Z,83.85
2018-01-17T21:19:11.571Z,83.25
2018-01-17T21:21:40.470Z,83.30
2018-01-17T21:24:08.811Z,83.49
2018-01-17T21:26:37.363Z,83.37
2018-01-17T21:29:05.744Z,82.98
2018-01-17T21:31:34.123Z,82.53
2018-01-17T21:34:04.207Z,82.53
2018-01-17T21:36:32.631Z,82.73
2018-01-17T21:39:01.795Z,82.96
2018-01-17T21:41:30.115Z,82.61
2018-01-17T21:44:05.660Z,82.43
2018-01-17T21:46:36.390Z,82.36
2018-01-17T21:49:05.495Z,82.46
2018-01-17T21:51:33.871Z,82.51
2018-01-17T21:54:02.270Z,82.76
2018-01-17T21:56:30.679Z,82.79
2018-01-17T21:58:59.006Z,82.88
2018-01-17T22:01:27.346Z,82.81
2018-01-17T22:03:55.723Z,83.03
2018-01-17T22:06:24.099Z,82.90
2018-01-17T22:08:52.435Z,83.24
2018-01-17T22:11:20.791Z,83.17
2018-01-17T22:13:49.119Z,82.97
2018-01-17T22:16:17.499Z,83.05
2018-01-17T22:18:45.898Z,83.15
2018-01-17T22:21:14.630Z,83.29
2018-01-17T22:23:43.000Z,83.29
2018-01-17T22:26:11.382Z,83.29
2018-01-17T22:28:39.708Z,83.05
2018-01-17T22:31:08.070Z,82.89
2018-01-17T22:33:36.474Z,82.88
2018-01-17T22:36:05.610Z,82.91
2018-01-17T22:38:34.046Z,83.07
2018-01-17T22:41:02.407Z,83.03
2018-01-17T22:43:30.766Z,82.69
2018-01-17T22:45:59.092Z,82.59
2018-01-17T22:48:27.452Z,82.17
2018-01-17T22:50:55.782Z,82.19
2018-01-17T22:53:24.142Z,81.99
2018-01-17T22:55:53.274Z,81.76
2018-01-17T22:58:21.590Z,81.67
2018-01-17T23:00:49.970Z,81.50
2018-01-17T23:03:19.106Z,81.50
2018-01-17T23:05:47.490Z,81.24
2018-01-17T23:08:15.854Z,81.10
2018-01-17T23:10:44.170Z,80.99
2018-01-17T23:13:12.798Z,80.75
2018-01-17T23:15:41.882Z,80.32
2018-01-17T23:18:10.270Z,80.32
2018-01-17T23:20:39.355Z,80.25
2018-01-17T23:23:08.474Z,80.26
2018-01-17T23:25:36.853Z,80.35
2018-01-17T23:28:05.235Z,80.23
2018-01-17T23:30:33.551Z,80.29
2018-01-17T23:33:01.969Z,80.14
2018-01-17T23:35:31.862Z,80.34
2018-01-17T23:38:00.221Z,80.16
2018-01-17T23:40:28.581Z,80.46
2018-01-17T23:42:56.957Z,80.32
2018-01-17T23:45:25.342Z,80.19
2018-01-17T23:47:53.666Z,80.16
2018-01-17T23:50:22.021Z,80.26
2018-01-17T23:52:50.385Z,80.23
2018-01-17T23:55:18.727Z,80.15
2018-01-17T23:57:47.078Z,80.05
